sensor_id;sensor_type;location;lat;lon;timestamp;pressure;altitude;pressure_sealevel;temperature;humidity
77077;BME280;66003;52.286;104.306;2023-10-19T00:01:16;98032.59;;;0.50;46.15
77077;BME280;66003;52.286;104.306;2023-10-19T00:03:44;98031.78;;;0.93;45.30
77077;BME280;66003;52.286;104.306;2023-10-19T00:06:11;98031.31;;;1.39;44.72
77077;BME280;66003;52.286;104.306;2023-10-19T00:08:39;98030.41;;;1.93;43.85
77077;BME280;66003;52.286;104.306;2023-10-19T00:11:10;98018.81;;;2.29;42.23
77077;BME280;66003;52.286;104.306;2023-10-19T00:13:47;98031.75;;;2.79;42.01
77077;BME280;66003;52.286;104.306;2023-10-19T00:16:16;98025.69;;;3.19;41.09
77077;BME280;66003;52.286;104.306;2023-10-19T00:18:44;98025.47;;;3.72;39.37
77077;BME280;66003;52.286;104.306;2023-10-19T00:21:10;98027.59;;;4.15;38.46
77077;BME280;66003;52.286;104.306;2023-10-19T00:23:46;98034.47;;;4.89;38.65
77077;BME280;66003;52.286;104.306;2023-10-19T00:26:18;98033.03;;;5.64;38.10
77077;BME280;66003;52.286;104.306;2023-10-19T00:28:49;98024.47;;;5.89;36.73
77077;BME280;66003;52.286;104.306;2023-10-19T00:31:19;98018.47;;;6.03;35.83
77077;BME280;66003;52.286;104.306;2023-10-19T00:33:49;98021.84;;;5.94;35.09
77077;BME280;66003;52.286;104.306;2023-10-19T00:36:20;98021.72;;;6.32;35.75
77077;BME280;66003;52.286;104.306;2023-10-19T00:38:50;98028.03;;;6.80;33.98
77077;BME280;66003;52.286;104.306;2023-10-19T00:41:23;98026.19;;;7.33;33.18
77077;BME280;66003;52.286;104.306;2023-10-19T00:43:58;98024.44;;;7.54;32.38
77077;BME280;66003;52.286;104.306;2023-10-19T00:46:29;98023.50;;;7.33;31.65
77077;BME280;66003;52.286;104.306;2023-10-19T00:49:02;98038.19;;;7.57;31.41
77077;BME280;66003;52.286;104.306;2023-10-19T00:51:36;98033.25;;;8.27;31.32
77077;BME280;66003;52.286;104.306;2023-10-19T00:54:04;98037.34;;;8.60;29.94
77077;BME280;66003;52.286;104.306;2023-10-19T00:56:46;98044.63;;;8.84;30.42
77077;BME280;66003;52.286;104.306;2023-10-19T00:59:19;98040.53;;;9.17;29.71
77077;BME280;66003;52.286;104.306;2023-10-19T01:01:56;98031.41;;;8.83;29.55
77077;BME280;66003;52.286;104.306;2023-10-19T01:04:42;98034.13;;;8.78;29.65
77077;BME280;66003;52.286;104.306;2023-10-19T01:07:09;98031.97;;;8.80;29.40
77077;BME280;66003;52.286;104.306;2023-10-19T01:09:39;98032.69;;;9.31;29.64
77077;BME280;66003;52.286;104.306;2023-10-19T01:12:06;98029.91;;;9.56;28.51
77077;BME280;66003;52.286;104.306;2023-10-19T01:15:05;98026.66;;;10.63;28.91
77077;BME280;66003;52.286;104.306;2023-10-19T01:17:37;98028.53;;;11.49;26.12
77077;BME280;66003;52.286;104.306;2023-10-19T01:20:08;98026.81;;;12.20;26.85
77077;BME280;66003;52.286;104.306;2023-10-19T01:23:08;98021.75;;;12.13;26.39
77077;BME280;66003;52.286;104.306;2023-10-19T01:25:44;98027.84;;;12.24;26.20
77077;BME280;66003;52.286;104.306;2023-10-19T01:28:31;98040.38;;;12.20;25.94
77077;BME280;66003;52.286;104.306;2023-10-19T01:33:48;98030.13;;;12.17;25.47
77077;BME280;66003;52.286;104.306;2023-10-19T01:36:14;98023.66;;;12.69;25.94
77077;BME280;66003;52.286;104.306;2023-10-19T01:38:54;98029.38;;;13.87;25.06
77077;BME280;66003;52.286;104.306;2023-10-19T01:41:23;98030.03;;;14.06;23.71
77077;BME280;66003;52.286;104.306;2023-10-19T01:43:51;98028.31;;;14.10;23.51
77077;BME280;66003;52.286;104.306;2023-10-19T01:46:22;98017.81;;;14.53;23.37
77077;BME280;66003;52.286;104.306;2023-10-19T01:48:58;98019.44;;;15.69;22.73
77077;BME280;66003;52.286;104.306;2023-10-19T01:51:26;98020.09;;;16.58;22.66
77077;BME280;66003;52.286;104.306;2023-10-19T01:53:53;98029.19;;;16.19;21.81
77077;BME280;66003;52.286;104.306;2023-10-19T01:56:22;98022.63;;;16.80;21.65
77077;BME280;66003;52.286;104.306;2023-10-19T01:58:49;98011.59;;;17.40;21.60
77077;BME280;66003;52.286;104.306;2023-10-19T02:01:18;98020.50;;;17.88;21.00
77077;BME280;66003;52.286;104.306;2023-10-19T02:03:58;98016.53;;;18.35;20.03
77077;BME280;66003;52.286;104.306;2023-10-19T02:06:26;98021.84;;;18.32;19.62
77077;BME280;66003;52.286;104.306;2023-10-19T02:09:01;98005.53;;;19.10;21.11
77077;BME280;66003;52.286;104.306;2023-10-19T02:11:57;98015.38;;;19.23;19.77
77077;BME280;66003;52.286;104.306;2023-10-19T02:14:26;98010.72;;;18.90;19.45
77077;BME280;66003;52.286;104.306;2023-10-19T02:16:57;98015.75;;;18.88;19.86
77077;BME280;66003;52.286;104.306;2023-10-19T02:19:26;98020.66;;;18.62;20.49
77077;BME280;66003;52.286;104.306;2023-10-19T02:21:57;98006.16;;;18.41;21.07
77077;BME280;66003;52.286;104.306;2023-10-19T02:24:25;97998.09;;;18.65;20.56
77077;BME280;66003;52.286;104.306;2023-10-19T02:26:54;97992.59;;;18.44;19.66
77077;BME280;66003;52.286;104.306;2023-10-19T02:29:21;97995.50;;;18.48;20.13
77077;BME280;66003;52.286;104.306;2023-10-19T02:31:48;97994.63;;;17.85;20.45
77077;BME280;66003;52.286;104.306;2023-10-19T02:34:16;97999.09;;;17.60;20.74
77077;BME280;66003;52.286;104.306;2023-10-19T02:36:44;97995.34;;;16.11;21.60
77077;BME280;66003;52.286;104.306;2023-10-19T02:39:12;97994.59;;;14.11;23.24
77077;BME280;66003;52.286;104.306;2023-10-19T02:41:45;97995.47;;;11.95;25.73
77077;BME280;66003;52.286;104.306;2023-10-19T02:44:17;98002.69;;;11.57;27.00
77077;BME280;66003;52.286;104.306;2023-10-19T02:46:45;97996.03;;;12.67;26.11
77077;BME280;66003;52.286;104.306;2023-10-19T02:49:13;98002.19;;;13.87;24.83
77077;BME280;66003;52.286;104.306;2023-10-19T02:51:44;97985.63;;;14.69;23.54
77077;BME280;66003;52.286;104.306;2023-10-19T02:54:14;97977.94;;;14.71;23.35
77077;BME280;66003;52.286;104.306;2023-10-19T02:56:48;97980.47;;;14.68;23.28
77077;BME280;66003;52.286;104.306;2023-10-19T02:59:16;97990.22;;;13.88;23.86
77077;BME280;66003;52.286;104.306;2023-10-19T03:01:43;97991.78;;;12.42;25.01
77077;BME280;66003;52.286;104.306;2023-10-19T03:04:12;97975.81;;;10.65;27.43
77077;BME280;66003;52.286;104.306;2023-10-19T03:06:39;97994.00;;;9.61;28.98
77077;BME280;66003;52.286;104.306;2023-10-19T03:09:08;97979.41;;;8.77;29.66
77077;BME280;66003;52.286;104.306;2023-10-19T03:11:53;97982.06;;;8.06;30.93
77077;BME280;66003;52.286;104.306;2023-10-19T03:14:23;97984.72;;;7.91;30.81
77077;BME280;66003;52.286;104.306;2023-10-19T03:16:52;97987.31;;;7.51;31.42
77077;BME280;66003;52.286;104.306;2023-10-19T03:19:21;97979.22;;;7.45;32.34
77077;BME280;66003;52.286;104.306;2023-10-19T03:21:47;97986.09;;;7.31;33.29
77077;BME280;66003;52.286;104.306;2023-10-19T03:24:17;97974.38;;;7.53;31.91
77077;BME280;66003;52.286;104.306;2023-10-19T03:27:12;97972.22;;;7.44;32.37
77077;BME280;66003;52.286;104.306;2023-10-19T03:29:44;97977.78;;;7.28;32.68
77077;BME280;66003;52.286;104.306;2023-10-19T03:32:22;97978.75;;;7.17;33.27
77077;BME280;66003;52.286;104.306;2023-10-19T03:34:53;97975.00;;;7.13;33.56
77077;BME280;66003;52.286;104.306;2023-10-19T03:37:23;97973.91;;;7.08;33.46
77077;BME280;66003;52.286;104.306;2023-10-19T03:39:51;97960.22;;;7.15;33.03
77077;BME280;66003;52.286;104.306;2023-10-19T03:42:18;97962.84;;;7.05;33.74
77077;BME280;66003;52.286;104.306;2023-10-19T03:44:46;97960.16;;;7.00;33.65
77077;BME280;66003;52.286;104.306;2023-10-19T03:47:16;97955.59;;;7.00;33.66
77077;BME280;66003;52.286;104.306;2023-10-19T03:50:01;97949.84;;;6.87;34.17
77077;BME280;66003;52.286;104.306;2023-10-19T03:52:35;97954.38;;;6.81;34.96
77077;BME280;66003;52.286;104.306;2023-10-19T03:55:04;97949.34;;;6.95;34.32
77077;BME280;66003;52.286;104.306;2023-10-19T03:57:37;97939.06;;;6.82;34.97
77077;BME280;66003;52.286;104.306;2023-10-19T04:00:08;97940.44;;;6.84;35.17
77077;BME280;66003;52.286;104.306;2023-10-19T04:02:41;97929.22;;;6.97;35.02
77077;BME280;66003;52.286;104.306;2023-10-19T04:05:08;97926.56;;;7.07;34.76
77077;BME280;66003;52.286;104.306;2023-10-19T04:07:40;97928.63;;;7.42;33.47
77077;BME280;66003;52.286;104.306;2023-10-19T04:10:08;97925.13;;;7.42;34.99
77077;BME280;66003;52.286;104.306;2023-10-19T04:12:39;97922.16;;;7.43;34.89
77077;BME280;66003;52.286;104.306;2023-10-19T04:15:09;97922.75;;;7.51;35.15
77077;BME280;66003;52.286;104.306;2023-10-19T04:17:47;97915.75;;;7.65;34.92
77077;BME280;66003;52.286;104.306;2023-10-19T04:20:17;97909.88;;;7.78;34.65
77077;BME280;66003;52.286;104.306;2023-10-19T04:22:48;97900.75;;;7.94;35.04
77077;BME280;66003;52.286;104.306;2023-10-19T04:25:15;97905.31;;;7.94;35.16
77077;BME280;66003;52.286;104.306;2023-10-19T04:27:42;97894.00;;;7.92;34.82
77077;BME280;66003;52.286;104.306;2023-10-19T04:30:10;97891.03;;;7.88;35.86
77077;BME280;66003;52.286;104.306;2023-10-19T04:32:44;97887.00;;;8.01;34.94
77077;BME280;66003;52.286;104.306;2023-10-19T04:35:11;97884.88;;;8.08;35.13
77077;BME280;66003;52.286;104.306;2023-10-19T04:37:39;97877.06;;;8.06;35.26
77077;BME280;66003;52.286;104.306;2023-10-19T04:40:09;97874.38;;;8.06;35.58
77077;BME280;66003;52.286;104.306;2023-10-19T04:42:37;97866.28;;;8.16;35.11
77077;BME280;66003;52.286;104.306;2023-10-19T04:45:04;97867.63;;;8.19;35.15
77077;BME280;66003;52.286;104.306;2023-10-19T04:47:32;97859.25;;;8.31;34.95
77077;BME280;66003;52.286;104.306;2023-10-19T04:50:02;97860.88;;;8.11;35.58
77077;BME280;66003;52.286;104.306;2023-10-19T04:52:32;97851.75;;;8.17;35.15
77077;BME280;66003;52.286;104.306;2023-10-19T04:54:59;97841.50;;;8.20;35.28
77077;BME280;66003;52.286;104.306;2023-10-19T04:57:28;97837.19;;;8.13;35.87
77077;BME280;66003;52.286;104.306;2023-10-19T04:59:54;97831.28;;;8.16;35.75
77077;BME280;66003;52.286;104.306;2023-10-19T05:02:22;97829.31;;;8.52;34.82
77077;BME280;66003;52.286;104.306;2023-10-19T05:04:51;97819.66;;;8.36;35.27
77077;BME280;66003;52.286;104.306;2023-10-19T05:07:17;97824.50;;;8.44;35.07
77077;BME280;66003;52.286;104.306;2023-10-19T05:09:44;97823.38;;;8.50;35.33
77077;BME280;66003;52.286;104.306;2023-10-19T05:12:12;97809.38;;;8.64;34.84
77077;BME280;66003;52.286;104.306;2023-10-19T05:14:41;97802.91;;;8.65;35.30
77077;BME280;66003;52.286;104.306;2023-10-19T05:17:09;97801.78;;;8.76;35.15
77077;BME280;66003;52.286;104.306;2023-10-19T05:19:36;97796.06;;;8.87;34.58
77077;BME280;66003;52.286;104.306;2023-10-19T05:22:05;97795.25;;;8.82;34.57
77077;BME280;66003;52.286;104.306;2023-10-19T05:24:35;97790.72;;;8.77;34.55
77077;BME280;66003;52.286;104.306;2023-10-19T05:27:01;97783.97;;;8.80;34.86
77077;BME280;66003;52.286;104.306;2023-10-19T05:29:31;97777.78;;;8.74;34.92
77077;BME280;66003;52.286;104.306;2023-10-19T05:32:02;97774.81;;;8.81;34.89
77077;BME280;66003;52.286;104.306;2023-10-19T05:34:29;97779.34;;;8.85;34.75
77077;BME280;66003;52.286;104.306;2023-10-19T05:36:58;97779.81;;;8.98;34.62
77077;BME280;66003;52.286;104.306;2023-10-19T05:39:31;97774.69;;;9.01;34.47
77077;BME280;66003;52.286;104.306;2023-10-19T05:41:59;97759.06;;;8.98;34.79
77077;BME280;66003;52.286;104.306;2023-10-19T05:44:28;97758.78;;;9.00;34.83
77077;BME280;66003;52.286;104.306;2023-10-19T05:46:57;97754.69;;;9.07;34.46
77077;BME280;66003;52.286;104.306;2023-10-19T05:49:25;97755.56;;;8.98;34.66
77077;BME280;66003;52.286;104.306;2023-10-19T05:51:52;97751.53;;;8.95;34.28
77077;BME280;66003;52.286;104.306;2023-10-19T05:54:18;97754.50;;;8.94;34.75
77077;BME280;66003;52.286;104.306;2023-10-19T05:56:44;97744.00;;;8.92;34.56
77077;BME280;66003;52.286;104.306;2023-10-19T05:59:11;97736.72;;;8.93;34.99
77077;BME280;66003;52.286;104.306;2023-10-19T06:01:38;97729.69;;;8.97;34.32
77077;BME280;66003;52.286;104.306;2023-10-19T06:04:05;97739.53;;;9.16;34.74
77077;BME280;66003;52.286;104.306;2023-10-19T06:06:32;97737.75;;;9.02;34.74
77077;BME280;66003;52.286;104.306;2023-10-19T06:08:58;97739.03;;;9.09;34.63
77077;BME280;66003;52.286;104.306;2023-10-19T06:11:28;97731.81;;;9.05;34.86
77077;BME280;66003;52.286;104.306;2023-10-19T06:13:58;97731.03;;;8.94;35.17
77077;BME280;66003;52.286;104.306;2023-10-19T06:16:25;97733.09;;;9.12;34.32
77077;BME280;66003;52.286;104.306;2023-10-19T06:18:51;97726.41;;;9.05;34.86
77077;BME280;66003;52.286;104.306;2023-10-19T06:21:18;97732.03;;;9.08;34.49
77077;BME280;66003;52.286;104.306;2023-10-19T06:23:45;97726.56;;;9.18;34.60
77077;BME280;66003;52.286;104.306;2023-10-19T06:26:11;97727.38;;;9.19;34.62
77077;BME280;66003;52.286;104.306;2023-10-19T06:28:39;97718.00;;;9.11;34.83
77077;BME280;66003;52.286;104.306;2023-10-19T06:31:06;97711.25;;;9.14;34.42
77077;BME280;66003;52.286;104.306;2023-10-19T06:33:33;97712.25;;;9.23;34.28
77077;BME280;66003;52.286;104.306;2023-10-19T06:35:59;97718.38;;;9.34;34.44
77077;BME280;66003;52.286;104.306;2023-10-19T06:38:29;97709.16;;;9.40;34.41
77077;BME280;66003;52.286;104.306;2023-10-19T06:40:58;97706.13;;;9.46;34.18
77077;BME280;66003;52.286;104.306;2023-10-19T06:43:25;97711.34;;;9.33;34.50
77077;BME280;66003;52.286;104.306;2023-10-19T06:45:55;97710.81;;;9.31;34.38
77077;BME280;66003;52.286;104.306;2023-10-19T06:48:22;97704.31;;;9.37;33.89
77077;BME280;66003;52.286;104.306;2023-10-19T06:50:48;97695.94;;;9.38;33.93
77077;BME280;66003;52.286;104.306;2023-10-19T06:53:14;97696.78;;;9.34;34.14
77077;BME280;66003;52.286;104.306;2023-10-19T06:55:40;97693.75;;;9.40;34.20
77077;BME280;66003;52.286;104.306;2023-10-19T06:58:06;97696.16;;;9.42;34.14
77077;BME280;66003;52.286;104.306;2023-10-19T07:00:35;97683.72;;;9.46;34.44
77077;BME280;66003;52.286;104.306;2023-10-19T07:03:08;97687.19;;;9.51;34.14
77077;BME280;66003;52.286;104.306;2023-10-19T07:05:34;97683.16;;;9.49;34.14
77077;BME280;66003;52.286;104.306;2023-10-19T07:08:00;97681.00;;;9.51;34.03
77077;BME280;66003;52.286;104.306;2023-10-19T07:10:28;97681.22;;;9.54;33.90
77077;BME280;66003;52.286;104.306;2023-10-19T07:12:55;97682.38;;;9.77;34.06
77077;BME280;66003;52.286;104.306;2023-10-19T07:15:22;97678.47;;;9.59;34.22
77077;BME280;66003;52.286;104.306;2023-10-19T07:17:51;97675.25;;;9.57;34.26
77077;BME280;66003;52.286;104.306;2023-10-19T07:20:22;97667.97;;;9.58;34.35
77077;BME280;66003;52.286;104.306;2023-10-19T07:22:53;97670.06;;;9.66;33.88
77077;BME280;66003;52.286;104.306;2023-10-19T07:25:20;97666.69;;;9.50;34.44
77077;BME280;66003;52.286;104.306;2023-10-19T07:27:48;97662.31;;;9.54;33.99
77077;BME280;66003;52.286;104.306;2023-10-19T07:30:17;97649.97;;;9.48;34.08
77077;BME280;66003;52.286;104.306;2023-10-19T07:32:50;97651.81;;;9.53;34.09
77077;BME280;66003;52.286;104.306;2023-10-19T07:35:23;97636.53;;;9.72;33.97
77077;BME280;66003;52.286;104.306;2023-10-19T07:37:51;97634.75;;;9.63;34.07
77077;BME280;66003;52.286;104.306;2023-10-19T07:40:18;97643.66;;;9.63;34.00
77077;BME280;66003;52.286;104.306;2023-10-19T07:42:46;97637.72;;;9.61;33.78
77077;BME280;66003;52.286;104.306;2023-10-19T07:45:14;97626.66;;;9.63;33.91
77077;BME280;66003;52.286;104.306;2023-10-19T07:47:41;97616.97;;;9.56;33.85
77077;BME280;66003;52.286;104.306;2023-10-19T07:50:09;97615.56;;;9.64;34.15
77077;BME280;66003;52.286;104.306;2023-10-19T07:52:52;97609.88;;;9.66;33.98
77077;BME280;66003;52.286;104.306;2023-10-19T07:55:21;97617.28;;;9.79;33.66
77077;BME280;66003;52.286;104.306;2023-10-19T07:57:51;97596.41;;;9.60;34.19
77077;BME280;66003;52.286;104.306;2023-10-19T08:00:19;97598.88;;;9.57;34.28
77077;BME280;66003;52.286;104.306;2023-10-19T08:02:46;97603.97;;;9.64;33.91
77077;BME280;66003;52.286;104.306;2023-10-19T08:05:13;97595.28;;;9.67;34.02
77077;BME280;66003;52.286;104.306;2023-10-19T08:07:40;97596.56;;;9.74;34.13
77077;BME280;66003;52.286;104.306;2023-10-19T08:10:09;97605.28;;;9.66;34.03
77077;BME280;66003;52.286;104.306;2023-10-19T08:12:37;97594.47;;;9.66;33.93
77077;BME280;66003;52.286;104.306;2023-10-19T08:15:04;97590.19;;;9.65;34.09
77077;BME280;66003;52.286;104.306;2023-10-19T08:17:32;97588.47;;;9.74;33.96
77077;BME280;66003;52.286;104.306;2023-10-19T08:20:00;97583.41;;;9.68;34.02
77077;BME280;66003;52.286;104.306;2023-10-19T08:22:30;97583.66;;;9.71;34.20
77077;BME280;66003;52.286;104.306;2023-10-19T08:24:56;97584.63;;;9.80;34.17
77077;BME280;66003;52.286;104.306;2023-10-19T08:27:22;97588.00;;;9.67;34.18
77077;BME280;66003;52.286;104.306;2023-10-19T08:29:49;97581.00;;;9.66;34.18
77077;BME280;66003;52.286;104.306;2023-10-19T08:32:16;97584.69;;;9.75;34.02
77077;BME280;66003;52.286;104.306;2023-10-19T08:34:42;97581.00;;;9.66;34.09
77077;BME280;66003;52.286;104.306;2023-10-19T08:37:08;97577.38;;;9.52;34.10
77077;BME280;66003;52.286;104.306;2023-10-19T08:39:34;97577.00;;;9.58;34.27
77077;BME280;66003;52.286;104.306;2023-10-19T08:42:04;97566.78;;;9.55;34.19
77077;BME280;66003;52.286;104.306;2023-10-19T08:44:30;97569.63;;;9.69;34.04
77077;BME280;66003;52.286;104.306;2023-10-19T08:46:56;97572.75;;;9.52;34.61
77077;BME280;66003;52.286;104.306;2023-10-19T08:49:26;97575.50;;;9.47;34.74
77077;BME280;66003;52.286;104.306;2023-10-19T08:51:56;97569.34;;;9.42;35.01
77077;BME280;66003;52.286;104.306;2023-10-19T08:54:24;97560.28;;;9.33;35.33
77077;BME280;66003;52.286;104.306;2023-10-19T08:56:51;97562.75;;;9.53;34.78
77077;BME280;66003;52.286;104.306;2023-10-19T08:59:17;97558.63;;;9.37;34.92
77077;BME280;66003;52.286;104.306;2023-10-19T09:01:43;97549.47;;;9.33;35.06
77077;BME280;66003;52.286;104.306;2023-10-19T09:04:10;97553.84;;;9.29;35.24
77077;BME280;66003;52.286;104.306;2023-10-19T09:06:37;97551.44;;;9.27;35.46
77077;BME280;66003;52.286;104.306;2023-10-19T09:09:12;97548.25;;;9.20;35.73
77077;BME280;66003;52.286;104.306;2023-10-19T09:11:47;97549.41;;;9.14;35.87
77077;BME280;66003;52.286;104.306;2023-10-19T09:14:15;97538.66;;;9.09;35.58
77077;BME280;66003;52.286;104.306;2023-10-19T09:16:56;97544.06;;;9.09;36.00
77077;BME280;66003;52.286;104.306;2023-10-19T09:19:41;97528.97;;;9.08;36.01
77077;BME280;66003;52.286;104.306;2023-10-19T09:22:08;97531.75;;;8.98;36.04
77077;BME280;66003;52.286;104.306;2023-10-19T09:24:55;97527.59;;;9.10;35.43
77077;BME280;66003;52.286;104.306;2023-10-19T09:27:21;97534.31;;;9.13;35.38
77077;BME280;66003;52.286;104.306;2023-10-19T09:29:49;97534.28;;;8.89;36.02
77077;BME280;66003;52.286;104.306;2023-10-19T09:32:18;97527.09;;;8.79;36.30
77077;BME280;66003;52.286;104.306;2023-10-19T09:34:45;97526.56;;;8.77;36.43
77077;BME280;66003;52.286;104.306;2023-10-19T09:37:15;97524.41;;;8.79;36.17
77077;BME280;66003;52.286;104.306;2023-10-19T09:39:42;97520.22;;;8.63;37.09
77077;BME280;66003;52.286;104.306;2023-10-19T09:42:10;97520.28;;;8.48;38.18
77077;BME280;66003;52.286;104.306;2023-10-19T09:44:44;97525.19;;;8.41;38.66
77077;BME280;66003;52.286;104.306;2023-10-19T09:47:17;97521.25;;;8.28;38.86
77077;BME280;66003;52.286;104.306;2023-10-19T09:49:47;97524.25;;;8.22;38.73
77077;BME280;66003;52.286;104.306;2023-10-19T09:52:16;97512.72;;;8.11;39.35
77077;BME280;66003;52.286;104.306;2023-10-19T09:54:59;97518.72;;;8.03;40.74
77077;BME280;66003;52.286;104.306;2023-10-19T09:57:43;97508.28;;;7.91;40.50
77077;BME280;66003;52.286;104.306;2023-10-19T10:00:13;97511.28;;;7.85;40.78
77077;BME280;66003;52.286;104.306;2023-10-19T10:02:39;97511.19;;;8.00;40.76
77077;BME280;66003;52.286;104.306;2023-10-19T10:10:46;97507.69;;;7.50;41.37
77077;BME280;66003;52.286;104.306;2023-10-19T10:15:57;97513.06;;;7.35;41.49
77077;BME280;66003;52.286;104.306;2023-10-19T10:18:30;97511.19;;;7.30;42.30
77077;BME280;66003;52.286;104.306;2023-10-19T10:21:13;97506.09;;;7.29;42.51
77077;BME280;66003;52.286;104.306;2023-10-19T10:26:14;97502.66;;;7.08;42.74
77077;BME280;66003;52.286;104.306;2023-10-19T10:28:41;97498.88;;;7.09;42.49
77077;BME280;66003;52.286;104.306;2023-10-19T10:31:11;97513.41;;;7.08;42.45
77077;BME280;66003;52.286;104.306;2023-10-19T10:33:48;97507.22;;;7.13;43.32
77077;BME280;66003;52.286;104.306;2023-10-19T10:36:19;97501.31;;;7.05;43.00
77077;BME280;66003;52.286;104.306;2023-10-19T10:38:46;97502.41;;;6.99;42.78
77077;BME280;66003;52.286;104.306;2023-10-19T10:41:19;97514.50;;;7.02;42.91
77077;BME280;66003;52.286;104.306;2023-10-19T10:43:55;97512.66;;;6.92;43.01
77077;BME280;66003;52.286;104.306;2023-10-19T10:46:26;97509.41;;;6.95;42.64
77077;BME280;66003;52.286;104.306;2023-10-19T10:48:56;97503.78;;;6.87;42.48
77077;BME280;66003;52.286;104.306;2023-10-19T10:51:25;97498.66;;;6.90;42.17
77077;BME280;66003;52.286;104.306;2023-10-19T10:53:54;97496.78;;;6.81;42.37
77077;BME280;66003;52.286;104.306;2023-10-19T10:56:22;97494.63;;;6.88;42.02
77077;BME280;66003;52.286;104.306;2023-10-19T10:58:49;97493.59;;;6.79;42.05
77077;BME280;66003;52.286;104.306;2023-10-19T11:01:28;97496.50;;;6.82;42.64
77077;BME280;66003;52.286;104.306;2023-10-19T11:04:11;97498.16;;;6.78;41.63
77077;BME280;66003;52.286;104.306;2023-10-19T11:06:54;97496.53;;;6.72;42.01
77077;BME280;66003;52.286;104.306;2023-10-19T11:09:23;97498.69;;;6.60;42.11
77077;BME280;66003;52.286;104.306;2023-10-19T11:11:54;97503.00;;;6.56;42.16
77077;BME280;66003;52.286;104.306;2023-10-19T11:14:20;97498.69;;;6.50;41.82
77077;BME280;66003;52.286;104.306;2023-10-19T11:16:49;97488.78;;;6.45;42.12
77077;BME280;66003;52.286;104.306;2023-10-19T11:19:15;97489.56;;;6.46;42.05
77077;BME280;66003;52.286;104.306;2023-10-19T11:21:53;97495.47;;;6.48;42.35
77077;BME280;66003;52.286;104.306;2023-10-19T11:24:26;97489.84;;;6.44;42.16
77077;BME280;66003;52.286;104.306;2023-10-19T11:26:52;97492.25;;;6.61;40.86
77077;BME280;66003;52.286;104.306;2023-10-19T11:29:18;97490.34;;;6.46;41.25
77077;BME280;66003;52.286;104.306;2023-10-19T11:31:57;97495.47;;;6.48;41.39
77077;BME280;66003;52.286;104.306;2023-10-19T11:34:23;97497.63;;;6.51;41.74
77077;BME280;66003;52.286;104.306;2023-10-19T11:36:54;97489.56;;;6.30;41.91
77077;BME280;66003;52.286;104.306;2023-10-19T11:39:23;97484.19;;;6.15;41.74
77077;BME280;66003;52.286;104.306;2023-10-19T11:41:51;97493.00;;;6.06;42.38
77077;BME280;66003;52.286;104.306;2023-10-19T11:44:19;97483.59;;;5.93;42.35
77077;BME280;66003;52.286;104.306;2023-10-19T11:46:45;97486.28;;;6.03;41.87
77077;BME280;66003;52.286;104.306;2023-10-19T11:49:11;97479.81;;;5.99;41.75
77077;BME280;66003;52.286;104.306;2023-10-19T11:51:37;97483.59;;;5.98;41.98
77077;BME280;66003;52.286;104.306;2023-10-19T11:54:06;97490.56;;;5.99;41.56
77077;BME280;66003;52.286;104.306;2023-10-19T11:56:33;97485.44;;;5.87;42.06
77077;BME280;66003;52.286;104.306;2023-10-19T11:59:01;97484.63;;;5.82;41.99
77077;BME280;66003;52.286;104.306;2023-10-19T12:01:27;97481.66;;;5.78;42.39
77077;BME280;66003;52.286;104.306;2023-10-19T12:03:55;97484.63;;;5.72;42.09
77077;BME280;66003;52.286;104.306;2023-10-19T12:06:21;97490.47;;;5.58;42.89
77077;BME280;66003;52.286;104.306;2023-10-19T12:08:49;97475.19;;;5.64;41.93
77077;BME280;66003;52.286;104.306;2023-10-19T12:11:15;97473.84;;;5.66;41.99
77077;BME280;66003;52.286;104.306;2023-10-19T12:13:46;97475.16;;;5.49;42.47
77077;BME280;66003;52.286;104.306;2023-10-19T12:16:13;97467.09;;;5.49;42.33
77077;BME280;66003;52.286;104.306;2023-10-19T12:18:42;97466.50;;;5.32;42.99
77077;BME280;66003;52.286;104.306;2023-10-19T12:21:08;97469.50;;;5.45;43.26
77077;BME280;66003;52.286;104.306;2023-10-19T12:23:44;97464.63;;;5.27;43.13
77077;BME280;66003;52.286;104.306;2023-10-19T12:26:11;97450.88;;;5.18;43.51
77077;BME280;66003;52.286;104.306;2023-10-19T12:28:37;97454.19;;;5.36;43.06
77077;BME280;66003;52.286;104.306;2023-10-19T12:31:04;97452.22;;;5.16;42.96
77077;BME280;66003;52.286;104.306;2023-10-19T12:33:38;97451.69;;;5.14;42.74
77077;BME280;66003;52.286;104.306;2023-10-19T12:36:05;97450.56;;;5.05;43.67
77077;BME280;66003;52.286;104.306;2023-10-19T12:38:46;97453.78;;;5.02;43.64
77077;BME280;66003;52.286;104.306;2023-10-19T12:41:13;97446.75;;;4.96;43.74
77077;BME280;66003;52.286;104.306;2023-10-19T12:43:40;97449.69;;;4.89;44.22
77077;BME280;66003;52.286;104.306;2023-10-19T12:46:07;97450.16;;;4.76;44.33
77077;BME280;66003;52.286;104.306;2023-10-19T12:48:35;97451.38;;;4.63;44.72
77077;BME280;66003;52.286;104.306;2023-10-19T12:51:01;97443.34;;;4.63;44.59
77077;BME280;66003;52.286;104.306;2023-10-19T12:53:29;97449.00;;;4.67;43.72
77077;BME280;66003;52.286;104.306;2023-10-19T12:55:55;97438.25;;;4.62;43.92
77077;BME280;66003;52.286;104.306;2023-10-19T12:58:21;97433.63;;;4.52;43.96
77077;BME280;66003;52.286;104.306;2023-10-19T13:00:48;97430.09;;;4.46;43.84
77077;BME280;66003;52.286;104.306;2023-10-19T13:03:17;97420.94;;;4.32;43.76
77077;BME280;66003;52.286;104.306;2023-10-19T13:05:44;97422.00;;;4.36;43.74
77077;BME280;66003;52.286;104.306;2023-10-19T13:08:11;97421.81;;;4.11;44.69
77077;BME280;66003;52.286;104.306;2023-10-19T13:10:43;97426.31;;;4.05;44.25
77077;BME280;66003;52.286;104.306;2023-10-19T13:13:14;97429.47;;;3.97;44.22
77077;BME280;66003;52.286;104.306;2023-10-19T13:15:42;97423.81;;;3.94;43.72